Time;durP1;ratioP1;P1;durP2;ratioP2;P2;SDS_P1;SDS_P2;PMS_P1;PMS_P2;Temp;Humidity;BMP_temperature;BMP_pressure;BME280_temperature;BME280_humidity;BME280_pressure;Samples;Min_cycle;Max_cycle;Signal;HPM_P1;HPM_P2
2024/04/22 00:02:48;;;;;;;6.78;6.10;;;;;;;;;;6720735;26;20003;-73
2024/04/22 00:05:54;;;;;;;5.82;5.32;;;;;;;;;;6758460;26;20007;-72
2024/04/22 00:08:57;;;;;;;7.57;6.82;;;;;;;;;;6774574;26;20661;-73
2024/04/22 00:12:00;;;;;;;5.68;5.15;;;;;;;;;;6728448;26;20381;-71
2024/04/22 00:15:02;;;;;;;5.05;3.70;;;;;;;;;;6696346;26;20948;-71
2024/04/22 00:18:05;;;;;;;8.45;7.75;;;;;;;;;;6737595;26;19994;-72
2024/04/22 00:21:08;;;;;;;8.02;7.35;;;;;;;;;;6729197;26;20082;-72
2024/04/22 00:24:11;;;;;;;8.50;7.88;;;;;;;;;;6730404;26;20017;-72
2024/04/22 00:27:16;;;;;;;8.23;7.55;;;;;;;;;;6724987;26;20050;-71
2024/04/22 00:30:18;;;;;;;7.80;7.10;;;;;;;;;;6692610;26;20625;-71
2024/04/22 00:33:21;;;;;;;8.38;7.65;;;;;;;;;;6728355;26;19994;-72
2024/04/22 00:36:23;;;;;;;8.23;7.53;;;;;;;;;;6688828;26;20043;-72
2024/04/22 00:39:26;;;;;;;7.88;7.18;;;;;;;;;;6692385;26;20557;-72
2024/04/22 00:42:29;;;;;;;6.68;6.10;;;;;;;;;;6689400;26;19999;-73
2024/04/22 00:45:33;;;;;;;6.88;6.18;;;;;;;;;;6736605;26;20007;-72
2024/04/22 00:48:36;;;;;;;7.07;6.43;;;;;;;;;;6760177;26;19998;-72
2024/04/22 00:51:39;;;;;;;6.97;6.30;;;;;;;;;;6723462;26;20081;-73
2024/04/22 00:54:42;;;;;;;7.13;6.45;;;;;;;;;;6733749;26;20007;-72
2024/04/22 00:57:45;;;;;;;6.25;5.68;;;;;;;;;;6724450;26;20497;-72
2024/04/22 01:00:51;;;;;;;6.72;6.13;;;;;;;;;;6732935;26;20810;-72
2024/04/22 01:03:54;;;;;;;6.47;5.88;;;;;;;;;;6709368;26;19998;-72
2024/04/22 01:06:57;;;;;;;6.68;6.07;;;;;;;;;;6727219;26;20014;-72
2024/04/22 01:10:02;;;;;;;7.15;6.50;;;;;;;;;;6719144;26;19995;-73
2024/04/22 01:13:05;;;;;;;4.22;3.03;;;;;;;;;;6764758;26;20619;-72
2024/04/22 01:16:08;;;;;;;8.30;7.70;;;;;;;;;;6722349;26;20018;-71
2024/04/22 01:19:10;;;;;;;6.80;6.15;;;;;;;;;;6711551;26;20107;-71
2024/04/22 01:22:13;;;;;;;9.55;8.75;;;;;;;;;;6769450;26;20025;-71
2024/04/22 01:25:17;;;;;;;7.70;6.88;;;;;;;;;;6718949;26;20026;-71
2024/04/22 01:28:20;;;;;;;7.68;7.07;;;;;;;;;;6701729;26;20035;-71
2024/04/22 01:31:24;;;;;;;10.85;10.05;;;;;;;;;;6767690;26;20014;-71
2024/04/22 01:34:27;;;;;;;11.02;10.20;;;;;;;;;;6718173;26;20006;-72
2024/04/22 01:37:30;;;;;;;5.65;4.20;;;;;;;;;;6761952;26;20364;-71
2024/04/22 01:40:34;;;;;;;10.35;9.50;;;;;;;;;;6719841;26;20004;-71
2024/04/22 01:43:36;;;;;;;9.15;8.35;;;;;;;;;;6724828;26;20017;-71
2024/04/22 01:46:39;;;;;;;9.88;8.98;;;;;;;;;;6704485;26;19999;-72
2024/04/22 01:49:42;;;;;;;10.70;9.80;;;;;;;;;;6771324;26;19995;-71
2024/04/22 01:52:44;;;;;;;11.32;10.23;;;;;;;;;;6717292;26;20051;-72
2024/04/22 01:55:47;;;;;;;12.43;11.43;;;;;;;;;;6775877;26;20014;-71
2024/04/22 01:58:51;;;;;;;13.38;12.20;;;;;;;;;;6739853;26;20012;-71
2024/04/22 02:01:54;;;;;;;12.52;11.45;;;;;;;;;;6740344;26;20011;-71
2024/04/22 02:04:56;;;;;;;7.72;5.72;;;;;;;;;;6717680;26;20341;-71
2024/04/22 02:07:59;;;;;;;11.45;10.52;;;;;;;;;;6700797;26;20045;-71
2024/04/22 02:11:01;;;;;;;12.05;11.05;;;;;;;;;;6787394;26;20106;-71
2024/04/22 02:14:04;;;;;;;13.85;12.65;;;;;;;;;;6712699;26;20026;-71
2024/04/22 02:17:07;;;;;;;11.55;10.55;;;;;;;;;;6729156;26;19998;-71
2024/04/22 02:20:10;;;;;;;13.52;12.35;;;;;;;;;;6696243;26;20179;-72
2024/04/22 02:23:13;;;;;;;10.80;9.93;;;;;;;;;;6771908;26;19998;-71
2024/04/22 02:26:16;;;;;;;11.57;10.45;;;;;;;;;;6726240;26;20388;-71
2024/04/22 02:29:18;;;;;;;13.00;12.00;;;;;;;;;;6764967;26;20017;-72
2024/04/22 02:32:21;;;;;;;8.68;7.53;;;;;;;;;;6736425;26;20033;-71
2024/04/22 02:35:23;;;;;;;8.18;7.47;;;;;;;;;;6761822;26;20185;-71
2024/04/22 02:38:26;;;;;;;11.50;10.52;;;;;;;;;;6731992;26;20007;-71
2024/04/22 02:41:28;;;;;;;9.85;8.90;;;;;;;;;;6770152;26;20018;-72
2024/04/22 02:44:31;;;;;;;9.10;8.38;;;;;;;;;;6735169;26;19999;-72
2024/04/22 02:47:33;;;;;;;9.38;8.68;;;;;;;;;;6737385;26;20014;-72
2024/04/22 02:50:36;;;;;;;11.38;10.20;;;;;;;;;;6782589;26;20002;-71
2024/04/22 02:53:39;;;;;;;9.05;8.30;;;;;;;;;;6766478;26;20063;-73
2024/04/22 02:56:41;;;;;;;7.95;7.35;;;;;;;;;;6734284;26;19998;-72
2024/04/22 02:59:44;;;;;;;8.23;7.53;;;;;;;;;;6759367;26;20050;-72
2024/04/22 03:02:46;;;;;;;11.70;10.73;;;;;;;;;;6700500;26;20048;-73
2024/04/22 03:05:49;;;;;;;10.20;9.30;;;;;;;;;;6700277;26;20089;-71
2024/04/22 03:08:52;;;;;;;12.00;10.88;;;;;;;;;;6730296;26;20002;-71
2024/04/22 03:11:55;;;;;;;10.38;9.38;;;;;;;;;;6735810;26;20006;-71
2024/04/22 03:14:58;;;;;;;12.73;11.60;;;;;;;;;;6698456;26;20019;-71
2024/04/22 03:18:00;;;;;;;9.02;8.30;;;;;;;;;;6769666;26;20003;-70
2024/04/22 03:21:03;;;;;;;13.98;12.68;;;;;;;;;;6750344;26;20012;-71
2024/04/22 03:24:06;;;;;;;11.35;10.32;;;;;;;;;;6676686;26;20023;-72
2024/04/22 03:27:08;;;;;;;12.10;10.90;;;;;;;;;;6696930;26;19999;-71
2024/04/22 03:30:11;;;;;;;13.55;12.20;;;;;;;;;;6733775;26;20047;-71
2024/04/22 03:33:14;;;;;;;11.75;10.57;;;;;;;;;;6731561;26;20114;-72
2024/04/22 03:36:17;;;;;;;10.57;9.57;;;;;;;;;;6763528;26;20007;-72
2024/04/22 03:39:19;;;;;;;13.35;12.15;;;;;;;;;;6699855;26;20042;-71
2024/04/22 03:42:22;;;;;;;8.80;7.97;;;;;;;;;;6719764;26;20057;-70
2024/04/22 03:45:25;;;;;;;13.63;12.43;;;;;;;;;;6773473;26;19998;-72
2024/04/22 03:51:49;;;;;;;14.20;12.93;;;;;;;;;;6760741;26;20002;-71
2024/04/22 03:54:52;;;;;;;11.55;10.43;;;;;;;;;;6731596;26;20009;-72
2024/04/22 03:57:55;;;;;;;12.43;11.15;;;;;;;;;;6743066;26;20002;-72
2024/04/22 04:00:57;;;;;;;16.15;14.75;;;;;;;;;;6768242;26;20007;-71
2024/04/22 04:04:00;;;;;;;14.65;13.27;;;;;;;;;;6733570;26;20003;-72
2024/04/22 04:07:03;;;;;;;12.50;11.32;;;;;;;;;;6760076;26;20017;-71
2024/04/22 04:10:06;;;;;;;13.38;11.48;;;;;;;;;;6762680;26;20002;-71
2024/04/22 04:13:09;;;;;;;13.50;12.30;;;;;;;;;;6737054;26;19995;-72
2024/04/22 04:16:11;;;;;;;13.75;12.35;;;;;;;;;;6782219;26;20014;-71
2024/04/22 04:19:14;;;;;;;13.73;12.30;;;;;;;;;;6702001;26;20019;-72
2024/04/22 04:22:17;;;;;;;10.32;9.32;;;;;;;;;;6734279;26;20049;-71
2024/04/22 04:25:19;;;;;;;10.60;8.80;;;;;;;;;;6705215;26;20612;-71
2024/04/22 04:28:22;;;;;;;11.43;10.23;;;;;;;;;;6728324;26;20010;-72
2024/04/22 04:31:25;;;;;;;11.25;10.23;;;;;;;;;;6754647;26;19994;-71
2024/04/22 04:34:27;;;;;;;11.60;10.48;;;;;;;;;;6771218;26;20018;-71
2024/04/22 04:37:30;;;;;;;13.23;11.82;;;;;;;;;;6730142;26;20443;-71
2024/04/22 04:40:33;;;;;;;13.70;12.13;;;;;;;;;;6729232;26;20003;-72
2024/04/22 04:43:35;;;;;;;13.57;12.20;;;;;;;;;;6662810;26;20017;-71
2024/04/22 04:46:38;;;;;;;14.52;13.00;;;;;;;;;;6698729;26;20011;-71
2024/04/22 04:49:40;;;;;;;13.18;11.85;;;;;;;;;;6722633;26;20002;-70
2024/04/22 04:52:44;;;;;;;12.45;10.90;;;;;;;;;;6766607;26;20882;-71
2024/04/22 04:55:47;;;;;;;12.55;9.65;;;;;;;;;;6700012;26;20072;-71
2024/04/22 04:58:50;;;;;;;13.43;11.88;;;;;;;;;;6679744;26;20013;-71
2024/04/22 05:01:54;;;;;;;14.57;13.10;;;;;;;;;;6735293;26;19999;-72
2024/04/22 05:04:56;;;;;;;10.57;9.02;;;;;;;;;;6732276;26;20356;-70
2024/04/22 05:07:59;;;;;;;14.30;13.00;;;;;;;;;;6768012;26;20003;-72
2024/04/22 05:11:03;;;;;;;13.30;11.70;;;;;;;;;;6720900;26;20468;-72
2024/04/22 05:14:06;;;;;;;8.43;7.65;;;;;;;;;;6727152;26;20043;-71
2024/04/22 05:17:08;;;;;;;10.95;9.95;;;;;;;;;;6763925;26;19998;-71
2024/04/22 05:20:11;;;;;;;16.33;14.70;;;;;;;;;;6758663;26;20026;-71
2024/04/22 05:23:13;;;;;;;13.18;11.23;;;;;;;;;;6715265;26;20049;-71
2024/04/22 05:26:16;;;;;;;10.90;7.85;;;;;;;;;;6768174;26;20612;-71
2024/04/22 05:29:19;;;;;;;11.73;10.63;;;;;;;;;;6760926;26;20928;-71
2024/04/22 05:32:21;;;;;;;10.25;9.38;;;;;;;;;;6699170;26;20017;-71
2024/04/22 05:38:46;;;;;;;9.95;9.05;;;;;;;;;;6735598;26;20013;-71
2024/04/22 05:41:49;;;;;;;9.40;8.40;;;;;;;;;;6744876;26;19994;-71
2024/04/22 05:44:51;;;;;;;8.85;8.05;;;;;;;;;;6704749;26;19999;-72
2024/04/22 05:47:54;;;;;;;7.47;6.78;;;;;;;;;;6674605;26;20831;-71
2024/04/22 05:50:58;;;;;;;8.82;8.10;;;;;;;;;;6754075;26;20000;-72
2024/04/22 05:54:02;;;;;;;8.23;7.13;;;;;;;;;;6726192;26;19999;-70
2024/04/22 05:57:05;;;;;;;6.50;4.90;;;;;;;;;;6748268;26;20356;-72
2024/04/22 06:00:09;;;;;;;6.72;4.68;;;;;;;;;;6756387;26;20698;-71
2024/04/22 06:03:14;;;;;;;7.78;6.70;;;;;;;;;;6772363;26;19999;-71
2024/04/22 06:06:17;;;;;;;10.30;9.32;;;;;;;;;;6743566;26;20009;-71
2024/04/22 06:09:22;;;;;;;8.77;7.03;;;;;;;;;;6768132;26;20030;-71
2024/04/22 06:12:25;;;;;;;7.55;6.85;;;;;;;;;;6757000;26;20002;-73
2024/04/22 06:15:28;;;;;;;8.32;7.50;;;;;;;;;;6782476;26;19995;-72
2024/04/22 06:18:30;;;;;;;7.85;7.15;;;;;;;;;;6738671;26;20003;-72
2024/04/22 06:21:33;;;;;;;7.80;7.07;;;;;;;;;;6726867;26;20448;-72
2024/04/22 06:24:35;;;;;;;8.95;8.13;;;;;;;;;;6773132;26;20003;-72
2024/04/22 06:27:38;;;;;;;8.80;7.93;;;;;;;;;;6753730;26;20013;-72
2024/04/22 06:30:40;;;;;;;7.55;6.70;;;;;;;;;;6777115;26;20006;-72
2024/04/22 06:33:43;;;;;;;9.93;9.02;;;;;;;;;;6741121;26;20003;-72
2024/04/22 06:36:46;;;;;;;8.70;7.93;;;;;;;;;;6729787;26;20008;-72
2024/04/22 06:39:48;;;;;;;8.18;7.47;;;;;;;;;;6721844;26;20464;-72
2024/04/22 06:42:51;;;;;;;8.20;6.88;;;;;;;;;;6741817;26;20022;-72
2024/04/22 06:45:54;;;;;;;6.65;6.05;;;;;;;;;;6757508;26;20028;-72
2024/04/22 06:48:56;;;;;;;9.07;8.27;;;;;;;;;;6767320;26;20021;-72
2024/04/22 06:51:59;;;;;;;9.02;7.80;;;;;;;;;;6714226;26;20035;-73
2024/04/22 06:55:01;;;;;;;8.90;7.72;;;;;;;;;;6762795;26;20006;-73
2024/04/22 06:58:04;;;;;;;8.52;7.72;;;;;;;;;;6724824;26;20070;-72
2024/04/22 07:01:07;;;;;;;9.40;8.45;;;;;;;;;;6698280;26;20017;-72
2024/04/22 07:04:12;;;;;;;9.10;8.20;;;;;;;;;;6728933;26;20037;-73
2024/04/22 07:07:14;;;;;;;8.55;7.65;;;;;;;;;;6730986;26;20559;-73
2024/04/22 07:10:18;;;;;;;8.68;7.88;;;;;;;;;;6759351;26;20021;-73
2024/04/22 07:13:20;;;;;;;7.88;5.05;;;;;;;;;;6740357;25;20087;-71
2024/04/22 07:16:23;;;;;;;7.57;6.85;;;;;;;;;;6702470;26;20003;-71
2024/04/22 07:19:25;;;;;;;10.63;7.93;;;;;;;;;;6723155;26;20010;-71
2024/04/22 07:22:32;;;;;;;9.65;7.82;;;;;;;;;;6701593;26;20010;-71
2024/04/22 07:25:37;;;;;;;11.15;7.97;;;;;;;;;;6702153;26;20003;-72
2024/04/22 07:28:39;;;;;;;8.80;7.30;;;;;;;;;;6725523;26;20006;-72
2024/04/22 07:31:45;;;;;;;7.13;6.07;;;;;;;;;;6730324;26;20071;-72
2024/04/22 07:34:48;;;;;;;8.18;7.40;;;;;;;;;;6700048;26;20573;-72
2024/04/22 07:37:51;;;;;;;6.78;4.95;;;;;;;;;;6753826;26;20581;-72
2024/04/22 07:40:54;;;;;;;7.72;7.03;;;;;;;;;;6661554;26;20006;-71
2024/04/22 07:43:58;;;;;;;8.48;7.63;;;;;;;;;;6768655;26;20990;-72
2024/04/22 07:47:01;;;;;;;7.82;6.90;;;;;;;;;;6688401;26;20039;-73
2024/04/22 07:50:04;;;;;;;7.25;6.38;;;;;;;;;;6733267;26;20434;-73
2024/04/22 07:53:07;;;;;;;10.02;5.63;;;;;;;;;;6734824;26;20351;-72
2024/04/22 07:56:13;;;;;;;6.57;5.93;;;;;;;;;;6755405;26;20007;-72
2024/04/22 07:59:16;;;;;;;8.85;8.07;;;;;;;;;;6756240;26;20460;-72
2024/04/22 08:02:19;;;;;;;7.53;6.82;;;;;;;;;;6740912;26;20006;-73
2024/04/22 08:05:22;;;;;;;10.85;7.90;;;;;;;;;;6748222;26;19999;-72
2024/04/22 08:08:26;;;;;;;7.75;6.93;;;;;;;;;;6711818;26;19994;-72
2024/04/22 08:11:29;;;;;;;6.15;5.55;;;;;;;;;;6708589;26;20012;-73
2024/04/22 08:14:32;;;;;;;7.78;7.07;;;;;;;;;;6730361;26;19998;-72
2024/04/22 08:17:35;;;;;;;6.30;5.70;;;;;;;;;;6722759;26;20003;-73
2024/04/22 08:20:37;;;;;;;6.95;6.35;;;;;;;;;;6782684;26;20002;-73
2024/04/22 08:23:43;;;;;;;6.50;5.05;;;;;;;;;;6756612;26;20756;-73
2024/04/22 08:26:45;;;;;;;;;;;;;;;;;;6654210;26;20010;-73
2024/04/22 08:29:52;;;;;;;7.45;5.75;;;;;;;;;;6736782;26;19953;-72
2024/04/22 08:32:55;;;;;;;8.27;7.57;;;;;;;;;;6735792;26;20006;-73
2024/04/22 08:35:57;;;;;;;8.98;7.60;;;;;;;;;;6698850;26;20022;-72
2024/04/22 08:39:00;;;;;;;4.95;4.07;;;;;;;;;;6681338;26;20002;-73
2024/04/22 08:42:12;;;;;;;7.75;7.05;;;;;;;;;;6761327;26;20013;-73
2024/04/22 08:45:15;;;;;;;8.50;7.90;;;;;;;;;;6680423;26;20011;-73
2024/04/22 08:48:18;;;;;;;7.28;5.80;;;;;;;;;;6747121;26;20010;-73
2024/04/22 08:51:21;;;;;;;7.07;6.47;;;;;;;;;;6692091;26;20002;-73
2024/04/22 08:54:26;;;;;;;4.82;3.03;;;;;;;;;;6730982;26;20844;-73
2024/04/22 08:57:29;;;;;;;4.95;3.30;;;;;;;;;;6764310;26;20757;-73
2024/04/22 09:00:32;;;;;;;6.25;5.70;;;;;;;;;;6762420;26;20042;-73
2024/04/22 09:03:34;;;;;;;9.40;8.40;;;;;;;;;;6769015;26;20092;-73
2024/04/22 09:06:37;;;;;;;10.02;9.02;;;;;;;;;;6733564;26;20034;-73
2024/04/22 09:09:46;;;;;;;8.85;8.15;;;;;;;;;;6735242;26;20095;-73
2024/04/22 09:13:09;;;;;;;7.10;6.50;;;;;;;;;;6735324;26;20078;-73
2024/04/22 09:16:16;;;;;;;6.28;5.63;;;;;;;;;;6761256;26;20054;-72
2024/04/22 09:19:22;;;;;;;7.38;6.80;;;;;;;;;;6698463;26;20023;-73
2024/04/22 09:22:26;;;;;;;6.32;5.82;;;;;;;;;;6758512;26;20586;-73
2024/04/22 09:25:28;;;;;;;4.38;3.67;;;;;;;;;;6728950;26;20355;-73
2024/04/22 09:28:34;;;;;;;6.85;6.25;;;;;;;;;;6728216;26;20004;-73
2024/04/22 09:31:41;;;;;;;6.18;5.65;;;;;;;;;;6722918;26;20136;-73
2024/04/22 09:34:44;;;;;;;5.85;5.22;;;;;;;;;;6756940;26;20447;-72
2024/04/22 09:37:49;;;;;;;5.13;2.65;;;;;;;;;;6738795;26;20845;-73
2024/04/22 09:40:52;;;;;;;9.00;8.27;;;;;;;;;;6767574;26;19994;-72
2024/04/22 09:43:55;;;;;;;6.32;5.82;;;;;;;;;;6654740;26;20014;-73
2024/04/22 09:47:06;;;;;;;6.18;5.57;;;;;;;;;;6742840;26;20003;-72
2024/04/22 09:50:09;;;;;;;6.22;5.65;;;;;;;;;;6737991;26;20014;-72
2024/04/22 09:53:12;;;;;;;6.13;5.63;;;;;;;;;;6707568;26;19995;-72
2024/04/22 09:56:24;;;;;;;5.72;5.18;;;;;;;;;;6721636;26;20581;-72
2024/04/22 09:59:27;;;;;;;6.50;5.65;;;;;;;;;;6715977;26;20394;-72
2024/04/22 10:02:32;;;;;;;6.55;5.95;;;;;;;;;;6732418;26;20456;-72
2024/04/22 10:05:35;;;;;;;8.20;7.25;;;;;;;;;;6729820;26;20042;-72
2024/04/22 10:08:38;;;;;;;6.00;3.63;;;;;;;;;;6737980;26;20469;-72
2024/04/22 10:11:42;;;;;;;5.78;5.18;;;;;;;;;;6768158;26;20440;-72
2024/04/22 10:14:46;;;;;;;5.40;4.00;;;;;;;;;;6748116;26;20356;-73
2024/04/22 10:17:48;;;;;;;5.18;4.78;;;;;;;;;;6745872;26;20009;-72
2024/04/22 10:20:55;;;;;;;5.97;5.47;;;;;;;;;;6765031;26;20014;-72
2024/04/22 10:23:58;;;;;;;6.68;6.07;;;;;;;;;;6718143;26;20003;-72
2024/04/22 10:27:03;;;;;;;5.60;5.10;;;;;;;;;;6763090;26;20385;-73
2024/04/22 10:30:13;;;;;;;5.35;4.95;;;;;;;;;;6720045;26;20002;-73
2024/04/22 10:33:15;;;;;;;4.97;4.57;;;;;;;;;;6732503;26;20456;-73
2024/04/22 10:36:18;;;;;;;4.90;3.28;;;;;;;;;;6708501;26;20003;-73
2024/04/22 10:39:21;;;;;;;6.03;5.53;;;;;;;;;;6733486;26;19995;-73
2024/04/22 10:42:27;;;;;;;4.60;3.38;;;;;;;;;;6738091;26;20447;-73
2024/04/22 10:45:31;;;;;;;5.95;4.68;;;;;;;;;;6731607;26;20539;-73
2024/04/22 10:48:33;;;;;;;5.82;4.07;;;;;;;;;;6703021;26;19999;-73
2024/04/22 10:51:36;;;;;;;5.45;4.82;;;;;;;;;;6677521;26;20018;-73
2024/04/22 10:54:39;;;;;;;5.38;4.88;;;;;;;;;;6757062;26;20013;-73
2024/04/22 10:57:42;;;;;;;4.28;3.85;;;;;;;;;;6774316;26;20766;-71
2024/04/22 11:00:46;;;;;;;3.53;2.63;;;;;;;;;;6709287;26;20003;-71
2024/04/22 11:03:59;;;;;;;7.97;5.38;;;;;;;;;;6764123;26;20003;-72
2024/04/22 11:07:02;;;;;;;5.38;4.50;;;;;;;;;;6741026;26;19998;-74
2024/04/22 11:10:22;;;;;;;4.88;4.38;;;;;;;;;;6687918;26;19999;-74
2024/04/22 11:13:39;;;;;;;6.07;5.57;;;;;;;;;;6679334;26;20002;-69
2024/04/22 11:16:42;;;;;;;6.13;5.53;;;;;;;;;;6724626;26;20812;-74
2024/04/22 11:19:45;;;;;;;3.80;2.63;;;;;;;;;;6724242;26;20547;-72
2024/04/22 11:22:48;;;;;;;6.15;5.57;;;;;;;;;;6718104;26;20013;-72
2024/04/22 11:25:51;;;;;;;5.97;5.47;;;;;;;;;;6715375;26;20010;-73
2024/04/22 11:28:58;;;;;;;4.60;4.20;;;;;;;;;;6683988;26;19999;-73
2024/04/22 11:32:01;;;;;;;5.90;5.40;;;;;;;;;;6701978;26;20464;-73
2024/04/22 11:35:06;;;;;;;4.10;2.85;;;;;;;;;;6722118;26;20037;-72
2024/04/22 11:38:16;;;;;;;5.65;5.15;;;;;;;;;;6735703;26;20006;-72
2024/04/22 11:41:18;;;;;;;4.80;4.40;;;;;;;;;;6773567;26;20460;-73
2024/04/22 11:44:23;;;;;;;5.47;4.97;;;;;;;;;;6725999;26;20025;-73
2024/04/22 11:47:28;;;;;;;;;;;;;;;;;;6727349;26;20771;-72
2024/04/22 11:50:31;;;;;;;5.38;2.53;;;;;;;;;;6726872;26;20381;-73
2024/04/22 11:53:33;;;;;;;5.95;4.93;;;;;;;;;;6726708;26;20002;-72
2024/04/22 11:56:37;;;;;;;6.22;2.83;;;;;;;;;;6728910;26;20025;-72
2024/04/22 11:59:40;;;;;;;4.32;2.53;;;;;;;;;;6729060;26;20014;-72
2024/04/22 12:02:42;;;;;;;5.35;4.85;;;;;;;;;;6725938;26;20007;-72
2024/04/22 12:05:45;;;;;;;3.42;2.20;;;;;;;;;;6702312;26;20011;-72
2024/04/22 12:08:48;;;;;;;4.90;4.40;;;;;;;;;;6778518;26;20058;-72
2024/04/22 12:11:51;;;;;;;4.70;4.00;;;;;;;;;;6737503;26;19999;-72
2024/04/22 12:14:53;;;;;;;4.70;4.30;;;;;;;;;;6710725;26;20010;-72
2024/04/22 12:17:56;;;;;;;4.88;4.47;;;;;;;;;;6727698;26;19995;-72
2024/04/22 12:20:58;;;;;;;5.93;4.97;;;;;;;;;;6713622;26;19994;-71
2024/04/22 12:24:04;;;;;;;3.75;2.45;;;;;;;;;;6755221;26;20074;-72
2024/04/22 12:27:07;;;;;;;4.50;2.35;;;;;;;;;;6735643;26;20466;-72
2024/04/22 12:30:13;;;;;;;6.07;4.22;;;;;;;;;;6769683;26;20009;-72
2024/04/22 12:33:15;;;;;;;3.65;3.05;;;;;;;;;;6710436;26;20919;-72
2024/04/22 12:36:18;;;;;;;5.93;4.50;;;;;;;;;;6727943;26;20080;-72
2024/04/22 12:39:21;;;;;;;5.72;5.03;;;;;;;;;;6758656;26;20570;-72
2024/04/22 12:42:23;;;;;;;4.57;3.83;;;;;;;;;;6760890;26;20017;-72
2024/04/22 12:45:27;;;;;;;3.78;1.73;;;;;;;;;;6750296;26;20070;-72
2024/04/22 12:51:51;;;;;;;2.70;1.73;;;;;;;;;;6755374;26;20002;-72
2024/04/22 12:54:54;;;;;;;4.20;1.90;;;;;;;;;;6715362;26;20002;-71
2024/04/22 12:57:59;;;;;;;3.72;2.58;;;;;;;;;;6738468;26;20006;-71
2024/04/22 13:01:02;;;;;;;3.90;3.45;;;;;;;;;;6754002;26;20060;-72
2024/04/22 13:04:07;;;;;;;4.15;2.83;;;;;;;;;;6723943;26;20018;-71
2024/04/22 13:07:10;;;;;;;6.25;3.53;;;;;;;;;;6741584;26;20479;-72
2024/04/22 13:10:12;;;;;;;3.92;2.47;;;;;;;;;;6732008;26;20014;-72
2024/04/22 13:13:15;;;;;;;4.90;4.50;;;;;;;;;;6703471;26;20021;-71
2024/04/22 13:16:18;;;;;;;4.50;4.10;;;;;;;;;;6763966;26;19999;-72
2024/04/22 13:19:21;;;;;;;5.28;4.68;;;;;;;;;;6757682;26;20019;-73
2024/04/22 13:22:24;;;;;;;5.78;4.53;;;;;;;;;;6698809;26;20014;-72
2024/04/22 13:25:26;;;;;;;5.95;3.92;;;;;;;;;;6729838;26;20003;-73
2024/04/22 13:28:32;;;;;;;3.60;2.25;;;;;;;;;;6721221;26;20896;-73
2024/04/22 13:31:35;;;;;;;6.80;5.57;;;;;;;;;;6730465;26;20057;-72
2024/04/22 13:34:52;;;;;;;5.13;3.45;;;;;;;;;;6773863;26;20003;-72
2024/04/22 13:37:55;;;;;;;4.30;2.80;;;;;;;;;;6736037;26;20633;-72
2024/04/22 13:40:57;;;;;;;3.92;3.53;;;;;;;;;;6753897;26;20003;-73
2024/04/22 13:44:00;;;;;;;4.03;3.17;;;;;;;;;;6715164;26;20007;-72
2024/04/22 13:47:04;;;;;;;4.47;3.45;;;;;;;;;;6712899;26;19998;-73
2024/04/22 13:50:09;;;;;;;4.22;3.33;;;;;;;;;;6766702;26;20014;-72
2024/04/22 13:53:12;;;;;;;3.65;3.25;;;;;;;;;;6768824;26;20482;-72
2024/04/22 13:56:28;;;;;;;3.92;3.53;;;;;;;;;;6733358;26;20079;-73
2024/04/22 13:59:30;;;;;;;4.53;3.25;;;;;;;;;;6756912;26;20086;-72
2024/04/22 14:02:33;;;;;;;6.28;5.68;;;;;;;;;;6751054;26;20007;-73
2024/04/22 14:05:36;;;;;;;3.47;1.67;;;;;;;;;;6777622;26;20012;-72
2024/04/22 14:08:38;;;;;;;6.47;3.70;;;;;;;;;;6667275;26;20003;-72
2024/04/22 14:11:41;;;;;;;4.22;3.17;;;;;;;;;;6760439;26;20006;-73
2024/04/22 14:14:44;;;;;;;5.90;4.28;;;;;;;;;;6762358;26;20391;-73
2024/04/22 14:17:46;;;;;;;3.90;3.40;;;;;;;;;;6763809;26;20013;-73
2024/04/22 14:20:49;;;;;;;3.85;3.17;;;;;;;;;;6712656;26;20003;-73
2024/04/22 14:23:52;;;;;;;6.10;3.38;;;;;;;;;;6693396;26;20063;-72
2024/04/22 14:26:54;;;;;;;6.22;2.78;;;;;;;;;;6735400;26;20463;-73
2024/04/22 14:29:57;;;;;;;6.97;3.30;;;;;;;;;;6752387;26;20014;-73
2024/04/22 14:32:59;;;;;;;4.57;3.50;;;;;;;;;;6771923;26;20866;-73
2024/04/22 14:36:02;;;;;;;4.03;2.90;;;;;;;;;;6709488;26;20018;-73
2024/04/22 14:39:05;;;;;;;5.25;3.58;;;;;;;;;;6717885;26;20083;-73
2024/04/22 14:42:07;;;;;;;4.93;3.03;;;;;;;;;;6760050;26;20075;-73
2024/04/22 14:45:11;;;;;;;4.00;3.08;;;;;;;;;;6754151;26;20111;-72
2024/04/22 14:48:14;;;;;;;5.10;3.20;;;;;;;;;;6733845;26;20601;-72
2024/04/22 14:51:17;;;;;;;9.40;3.33;;;;;;;;;;6757251;26;19995;-73
2024/04/22 14:54:20;;;;;;;4.03;3.20;;;;;;;;;;6780959;26;20002;-73
2024/04/22 14:57:23;;;;;;;3.72;2.85;;;;;;;;;;6713405;26;20021;-73
2024/04/22 15:00:26;;;;;;;3.33;2.83;;;;;;;;;;6753851;26;19995;-73
2024/04/22 15:03:29;;;;;;;4.15;3.08;;;;;;;;;;6732427;26;20010;-73
2024/04/22 15:06:33;;;;;;;3.92;3.40;;;;;;;;;;6733489;26;19995;-73
2024/04/22 15:09:46;;;;;;;4.18;3.40;;;;;;;;;;6773405;26;20006;-73
2024/04/22 15:12:48;;;;;;;5.32;3.25;;;;;;;;;;6694819;26;20841;-73
2024/04/22 15:15:51;;;;;;;3.85;2.97;;;;;;;;;;6722264;26;20014;-73
2024/04/22 15:18:57;;;;;;;3.75;2.58;;;;;;;;;;6735038;26;20021;-73
2024/04/22 15:21:59;;;;;;;3.67;2.75;;;;;;;;;;6769789;26;20281;-73
2024/04/22 15:25:02;;;;;;;7.93;4.35;;;;;;;;;;6750408;26;20002;-73
2024/04/22 15:28:07;;;;;;;4.63;3.47;;;;;;;;;;6750328;26;19998;-73
2024/04/22 15:31:10;;;;;;;3.90;3.10;;;;;;;;;;6759266;26;20063;-73
2024/04/22 15:34:12;;;;;;;4.20;2.63;;;;;;;;;;6750248;26;20327;-73
2024/04/22 15:37:15;;;;;;;3.80;2.95;;;;;;;;;;6732282;26;19999;-73
2024/04/22 15:40:21;;;;;;;4.43;2.83;;;;;;;;;;6754079;26;20434;-73
2024/04/22 15:43:23;;;;;;;4.82;3.85;;;;;;;;;;6722182;26;20013;-73
2024/04/22 15:46:26;;;;;;;4.68;3.05;;;;;;;;;;6731154;26;19998;-73
2024/04/22 15:49:29;;;;;;;6.22;3.72;;;;;;;;;;6754093;26;20444;-73
2024/04/22 15:52:31;;;;;;;5.93;4.05;;;;;;;;;;6690899;26;20021;-73
2024/04/22 15:55:34;;;;;;;3.28;2.05;;;;;;;;;;6755121;26;20350;-73
2024/04/22 15:58:40;;;;;;;4.43;3.63;;;;;;;;;;6762148;26;20017;-72
2024/04/22 16:01:42;;;;;;;5.60;4.18;;;;;;;;;;6701793;26;20090;-73
2024/04/22 16:04:46;;;;;;;3.95;3.30;;;;;;;;;;6768120;26;19998;-72
2024/04/22 16:07:48;;;;;;;4.85;4.45;;;;;;;;;;6754491;26;20015;-72
2024/04/22 16:10:51;;;;;;;4.95;4.22;;;;;;;;;;6745719;26;20011;-71
2024/04/22 16:13:56;;;;;;;6.13;5.43;;;;;;;;;;6714962;26;19998;-72
2024/04/22 16:16:59;;;;;;;6.68;4.72;;;;;;;;;;6758448;26;20014;-72
2024/04/22 16:20:01;;;;;;;6.25;3.90;;;;;;;;;;6716797;26;20673;-72
2024/04/22 16:23:05;;;;;;;7.07;5.32;;;;;;;;;;6771143;26;20002;-71
2024/04/22 16:26:07;;;;;;;5.50;4.63;;;;;;;;;;6715589;26;19999;-72
2024/04/22 16:29:10;;;;;;;4.78;3.85;;;;;;;;;;6744253;26;20851;-72
2024/04/22 16:32:13;;;;;;;6.35;5.28;;;;;;;;;;6750576;26;20473;-72
2024/04/22 16:35:15;;;;;;;6.10;5.50;;;;;;;;;;6752635;26;20009;-72
2024/04/22 16:38:18;;;;;;;11.25;8.07;;;;;;;;;;6748162;26;20003;-72
2024/04/22 16:41:21;;;;;;;13.65;10.50;;;;;;;;;;6741630;26;20037;-72
2024/04/22 16:44:23;;;;;;;24.65;19.23;;;;;;;;;;6741899;26;20013;-72
2024/04/22 16:47:26;;;;;;;8.95;7.10;;;;;;;;;;6752331;26;20043;-72
2024/04/22 16:50:28;;;;;;;10.00;7.65;;;;;;;;;;6692547;26;19999;-72
2024/04/22 16:53:31;;;;;;;22.88;16.58;;;;;;;;;;6771486;26;20013;-72
2024/04/22 16:56:33;;;;;;;8.40;7.57;;;;;;;;;;6749678;26;20465;-72
2024/04/22 16:59:37;;;;;;;12.50;6.93;;;;;;;;;;6727865;26;20010;-72
2024/04/22 17:02:44;;;;;;;8.05;6.13;;;;;;;;;;6734124;26;20014;-71
2024/04/22 17:05:47;;;;;;;19.30;17.20;;;;;;;;;;6772075;26;20003;-71
2024/04/22 17:08:49;;;;;;;7.43;5.57;;;;;;;;;;6763290;26;20010;-72
2024/04/22 17:11:52;;;;;;;9.77;7.03;;;;;;;;;;6721428;26;20611;-71
2024/04/22 17:14:55;;;;;;;10.70;9.68;;;;;;;;;;6756607;26;20025;-72
2024/04/22 17:17:57;;;;;;;14.77;6.97;;;;;;;;;;6746265;26;20030;-71
2024/04/22 17:21:00;;;;;;;8.43;7.50;;;;;;;;;;6734218;26;20002;-72
2024/04/22 17:24:06;;;;;;;12.80;10.00;;;;;;;;;;6774999;26;20103;-72
2024/04/22 17:27:09;;;;;;;9.00;8.02;;;;;;;;;;6723320;26;20065;-72
2024/04/22 17:30:11;;;;;;;7.13;6.43;;;;;;;;;;6759650;26;20046;-72
2024/04/22 17:33:14;;;;;;;7.70;6.05;;;;;;;;;;6751789;26;20046;-72
2024/04/22 17:36:16;;;;;;;7.95;5.72;;;;;;;;;;6774008;26;20002;-72
2024/04/22 17:39:19;;;;;;;6.65;5.93;;;;;;;;;;6734208;26;20009;-72
2024/04/22 17:42:23;;;;;;;7.55;6.85;;;;;;;;;;6728356;26;20018;-73
2024/04/22 17:45:25;;;;;;;9.10;7.20;;;;;;;;;;6753221;26;20013;-72
2024/04/22 17:48:28;;;;;;;7.35;6.47;;;;;;;;;;6759595;26;20013;-72
2024/04/22 17:51:31;;;;;;;6.60;5.40;;;;;;;;;;6744191;26;20351;-73
2024/04/22 17:54:33;;;;;;;7.03;5.57;;;;;;;;;;6760084;26;19999;-71
2024/04/22 17:57:36;;;;;;;6.80;6.07;;;;;;;;;;6767005;26;20006;-71
2024/04/22 18:00:40;;;;;;;6.65;6.05;;;;;;;;;;6742388;26;20082;-72
2024/04/22 18:03:44;;;;;;;6.53;5.82;;;;;;;;;;6721096;26;19994;-71
2024/04/22 18:06:47;;;;;;;7.22;6.53;;;;;;;;;;6729230;26;20002;-72
2024/04/22 18:09:50;;;;;;;7.15;6.30;;;;;;;;;;6702079;26;20033;-74
2024/04/22 18:12:53;;;;;;;10.23;7.85;;;;;;;;;;6735440;26;19994;-72
2024/04/22 18:15:55;;;;;;;8.48;7.50;;;;;;;;;;6757702;26;20027;-73
2024/04/22 18:18:58;;;;;;;7.20;6.30;;;;;;;;;;6753150;26;20014;-73
2024/04/22 18:22:01;;;;;;;6.93;6.22;;;;;;;;;;6743269;26;20042;-73
2024/04/22 18:25:15;;;;;;;7.03;6.32;;;;;;;;;;6684385;26;20104;-73